Alameda, CA (94501)

8:58 AM PDT on April 26, 2017 (GMT -0700)
Central Ave and Paru St | | Change Station

Elev 30 ft 37.77 °N, 122.26 °W | Updated 4 minutes ago

Overcast
Overcast
59.2 °F
Feels Like 59.2 °F
N
0.0
Wind Variable Wind from NNW
Gusts 2.0 mph

Today
High -- | Low -- °F
--% Chance of Precip.
Yesterday
High -- | Low -- °F
Precip. -- in
Pressure 30.07 in
Visibility 2.0 miles
Clouds Mostly Cloudy 700 ft
Overcast 1100 ft
Dew Point 54 °F
Humidity 84%
Rainfall 0.00 in
Snow Depth Not available.
6:18 AM 7:55 PM
New Moon, 0% visible
METAR KOAK 261553Z 26009KT 2SM -DZ BR BKN007 OVC011 16/14 A3007 RMK AO2 DZB45 SLP182 P0000 T01560144
Pressure 30.07 in
Visibility 2.0 miles
Clouds Mostly Cloudy 700 ft
Overcast 1100 ft
Dew Point 54 °F
Humidity 84%
Rainfall 0.00 in
Snow Depth Not available.
6:18 AM 7:55 PM
New Moon, 0% visible
METAR KOAK 261553Z 26009KT 2SM -DZ BR BKN007 OVC011 16/14 A3007 RMK AO2 DZB45 SLP182 P0000 T01560144

Get Severe Weather Alerts

Thanks for signing up!

Be on the lookout for a verification email in your inbox.

You'll start receiving the daily forecast at 8 AM.

×

10-Day Weather Forecast

Almanac

Astronomy

Apr. 26, 2017 Rise Set
Actual Time
Civil Twilight
Nautical Twilight
Astronomical Twilight
Moon
Length of Visible Light
Length of Day
Tomorrow will be .
, % of the Moon is Illuminated

Today's Extremes

State Highs State Lows

Community

WunderPhotos

WunderBlog® & News

Nearby

Air Quality

  Air Quality AQ Index Pollutant
Not available.

Snow Depth

Station Depth Elevation

Earthquake Activity

City Distance Mag. Time & Date
Minimum magnitude displayed is 2.5.

Coastal Water Temperatures

Place Temperature

Stations

Nearby Weather Stations

Station Location Temp. Windchill Dew Point Humidity Wind Precip. Elev Updated Type
                   

Watches & Warnings

There are currently no watches in effect.